Tincup, Colorado
Current Conditions -  °F | °C
As of 4:34 PM on Wednesday 22 Oct 2014 (Local Time) from K7BM Reporting Station
Scattered Clouds Scattered Clouds  
Wind Chill: 40°   Ceiling: Unl
Heat Index: 45°   Visibility: 10mi
Dew Point: 32°   Wind: 9mph
Humidity: 61%   Direction: 270°W
Pressure: 30.31"   Gusts: 18mph
Location:  38.7752°N, 106.586°W
Report Text: K7BM 222234Z AUTO 27008G16KT 10SM SCT065 SCT075 SCT085 07/00 A3031 RMK AO2
Loading
Personal Weather Stations






























Interactive Weather Map
Tropical Storm Tracking
New forecast layout! Learn more

10-Day Weather Forecast

Advertisements
Track Severe Weather on mobile